Aviation Digital Data Service (ADDS)

Output produced by METARs form (1444 UTC 19 January 2019)
found at http://www.aviationweather.gov/metar/data/
 
METAR text: KTUS 191353Z 10004KT 10SM CLR 07/02 A3028 RMK AO2 SLP238 T00720022
Conditions at: KTUS (TUCSON , AZ, US) observed 1353 UTC 19 January 2019
Temperature: 7.2°C (45°F)
Dewpoint: 2.2°C (36°F) [RH = 70%]
Pressure (altimeter): 30.28 inches Hg (1025.5 mb)
[Sea-level pressure: 1023.8 mb]
Winds: from the E (100 degrees) at 5 MPH (4 knots; 2.1 m/s)
Visibility: 10 or more miles (16+ km)
Ceiling: at least 12,000 feet AGL
Clouds: sky clear below 12,000 feet AGL
Weather: no significant weather observed at this time

METAR text: KTUS 191253Z 12003KT 10SM CLR 06/03 A3027 RMK AO2 SLP237 T00560033
Conditions at: KTUS (TUCSON , AZ, US) observed 1253 UTC 19 January 2019
Temperature: 5.6°C (42°F)
Dewpoint: 3.3°C (38°F) [RH = 85%]
Pressure (altimeter): 30.27 inches Hg (1025.1 mb)
[Sea-level pressure: 1023.7 mb]
Winds: from the ESE (120 degrees) at 3 MPH (3 knots; 1.5 m/s)
Visibility: 10 or more miles (16+ km)
Ceiling: at least 12,000 feet AGL
Clouds: sky clear below 12,000 feet AGL
Weather: no significant weather observed at this time

METAR text: KTUS 191153Z 12003KT 10SM CLR 06/04 A3027 RMK AO2 SLP233 T00610039 10117 20050 50001
Conditions at: KTUS (TUCSON , AZ, US) observed 1153 UTC 19 January 2019
Temperature: 6.1°C (43°F)
Dewpoint: 3.9°C (39°F) [RH = 86%]
Pressure (altimeter): 30.27 inches Hg (1025.1 mb)
[Sea-level pressure: 1023.3 mb]
Winds: from the ESE (120 degrees) at 3 MPH (3 knots; 1.5 m/s)
Visibility: 10 or more miles (16+ km)
Ceiling: at least 12,000 feet AGL
Clouds: sky clear below 12,000 feet AGL
Weather: no significant weather observed at this time

METAR text: KTUS 191053Z 11003KT 10SM CLR 07/05 A3027 RMK AO2 SLP233 T00670050
Conditions at: KTUS (TUCSON , AZ, US) observed 1053 UTC 19 January 2019
Temperature: 6.7°C (44°F)
Dewpoint: 5.0°C (41°F) [RH = 89%]
Pressure (altimeter): 30.27 inches Hg (1025.1 mb)
[Sea-level pressure: 1023.3 mb]
Winds: from the ESE (110 degrees) at 3 MPH (3 knots; 1.5 m/s)
Visibility: 10 or more miles (16+ km)
Ceiling: at least 12,000 feet AGL
Clouds: sky clear below 12,000 feet AGL
Weather: no significant weather observed at this time

METAR text: KTUS 190953Z 13003KT 10SM CLR 07/06 A3027 RMK AO2 SLP231 T00720056
Conditions at: KTUS (TUCSON , AZ, US) observed 0953 UTC 19 January 2019
Temperature: 7.2°C (45°F)
Dewpoint: 5.6°C (42°F) [RH = 90%]
Pressure (altimeter): 30.27 inches Hg (1025.1 mb)
[Sea-level pressure: 1023.1 mb]
Winds: from the SE (130 degrees) at 3 MPH (3 knots; 1.5 m/s)
Visibility: 10 or more miles (16+ km)
Ceiling: at least 12,000 feet AGL
Clouds: sky clear below 12,000 feet AGL
Weather: no significant weather observed at this time

METAR text: KTUS 190853Z 13004KT 10SM CLR 08/06 A3027 RMK AO2 SLP230 T00830061 50008
Conditions at: KTUS (TUCSON , AZ, US) observed 0853 UTC 19 January 2019
Temperature: 8.3°C (47°F)
Dewpoint: 6.1°C (43°F) [RH = 86%]
Pressure (altimeter): 30.27 inches Hg (1025.1 mb)
[Sea-level pressure: 1023.0 mb]
Winds: from the SE (130 degrees) at 5 MPH (4 knots; 2.1 m/s)
Visibility: 10 or more miles (16+ km)
Ceiling: at least 12,000 feet AGL
Clouds: sky clear below 12,000 feet AGL
Weather: no significant weather observed at this time

METAR text: KTUS 190753Z 00000KT 10SM CLR 09/07 A3027 RMK AO2 SLP230 T00940067
Conditions at: KTUS (TUCSON , AZ, US) observed 0753 UTC 19 January 2019
Temperature: 9.4°C (49°F)
Dewpoint: 6.7°C (44°F) [RH = 83%]
Pressure (altimeter): 30.27 inches Hg (1025.1 mb)
[Sea-level pressure: 1023.0 mb]
Winds: calm
Visibility: 10 or more miles (16+ km)
Ceiling: at least 12,000 feet AGL
Clouds: sky clear below 12,000 feet AGL
Weather: no significant weather observed at this time

METAR text: KTUS 190653Z 22005KT 10SM CLR 11/07 A3026 RMK AO2 SLP226 T01060072 401940067
Conditions at: KTUS (TUCSON , AZ, US) observed 0653 UTC 19 January 2019
Temperature: 10.6°C (51°F)
Dewpoint: 7.2°C (45°F) [RH = 79%]
Pressure (altimeter): 30.26 inches Hg (1024.8 mb)
[Sea-level pressure: 1022.6 mb]
Winds: from the SW (220 degrees) at 6 MPH (5 knots; 2.6 m/s)
Visibility: 10 or more miles (16+ km)
Ceiling: at least 12,000 feet AGL
Clouds: sky clear below 12,000 feet AGL
Weather: no significant weather observed at this time

METAR text: KTUS 190553Z 26006KT 10SM CLR 11/07 A3024 RMK AO2 SLP221 T01060072 10178 20106 51011
Conditions at: KTUS (TUCSON , AZ, US) observed 0553 UTC 19 January 2019
Temperature: 10.6°C (51°F)
Dewpoint: 7.2°C (45°F) [RH = 79%]
Pressure (altimeter): 30.24 inches Hg (1024.1 mb)
[Sea-level pressure: 1022.1 mb]
Winds: from the W (260 degrees) at 7 MPH (6 knots; 3.1 m/s)
Visibility: 10 or more miles (16+ km)
Ceiling: at least 12,000 feet AGL
Clouds: sky clear below 12,000 feet AGL
Weather: no significant weather observed at this time

METAR text: KTUS 190453Z 31006KT 10SM CLR 13/08 A3023 RMK AO2 SLP219 T01280078
Conditions at: KTUS (TUCSON , AZ, US) observed 0453 UTC 19 January 2019
Temperature: 12.8°C (55°F)
Dewpoint: 7.8°C (46°F) [RH = 72%]
Pressure (altimeter): 30.23 inches Hg (1023.8 mb)
[Sea-level pressure: 1021.9 mb]
Winds: from the NW (310 degrees) at 7 MPH (6 knots; 3.1 m/s)
Visibility: 10 or more miles (16+ km)
Ceiling: at least 12,000 feet AGL
Clouds: sky clear below 12,000 feet AGL
Weather: no significant weather observed at this time

METAR text: KTUS 190353Z 29008KT 10SM CLR 13/07 A3022 RMK AO2 SLP217 T01330072
Conditions at: KTUS (TUCSON , AZ, US) observed 0353 UTC 19 January 2019
Temperature: 13.3°C (56°F)
Dewpoint: 7.2°C (45°F) [RH = 66%]
Pressure (altimeter): 30.22 inches Hg (1023.5 mb)
[Sea-level pressure: 1021.7 mb]
Winds: from the WNW (290 degrees) at 9 MPH (8 knots; 4.1 m/s)
Visibility: 10 or more miles (16+ km)
Ceiling: at least 12,000 feet AGL
Clouds: sky clear below 12,000 feet AGL
Weather: no significant weather observed at this time

METAR text: KTUS 190253Z 31006KT 10SM CLR 14/07 A3021 RMK AO2 SLP213 T01390067 53022
Conditions at: KTUS (TUCSON , AZ, US) observed 0253 UTC 19 January 2019
Temperature: 13.9°C (57°F)
Dewpoint: 6.7°C (44°F) [RH = 62%]
Pressure (altimeter): 30.21 inches Hg (1023.1 mb)
[Sea-level pressure: 1021.3 mb]
Winds: from the NW (310 degrees) at 7 MPH (6 knots; 3.1 m/s)
Visibility: 10 or more miles (16+ km)
Ceiling: at least 12,000 feet AGL
Clouds: sky clear below 12,000 feet AGL
Weather: no significant weather observed at this time

METAR text: KTUS 190153Z 32008KT 10SM CLR 14/07 A3018 RMK AO2 SLP203 T01440067
Conditions at: KTUS (TUCSON , AZ, US) observed 0153 UTC 19 January 2019
Temperature: 14.4°C (58°F)
Dewpoint: 6.7°C (44°F) [RH = 60%]
Pressure (altimeter): 30.18 inches Hg (1022.1 mb)
[Sea-level pressure: 1020.3 mb]
Winds: from the NW (320 degrees) at 9 MPH (8 knots; 4.1 m/s)
Visibility: 10 or more miles (16+ km)
Ceiling: at least 12,000 feet AGL
Clouds: sky clear below 12,000 feet AGL
Weather: no significant weather observed at this time

METAR text: KTUS 190053Z 34014G20KT 10SM CLR 16/06 A3015 RMK AO2 SLP193 T01560061
Conditions at: KTUS (TUCSON , AZ, US) observed 0053 UTC 19 January 2019
Temperature: 15.6°C (60°F)
Dewpoint: 6.1°C (43°F) [RH = 53%]
Pressure (altimeter): 30.15 inches Hg (1021.1 mb)
[Sea-level pressure: 1019.3 mb]
Winds: from the NNW (340 degrees) at 16 MPH (14 knots; 7.2 m/s)
gusting to 23 MPH (20 knots; 10.3 m/s)
Visibility: 10 or more miles (16+ km)
Ceiling: at least 12,000 feet AGL
Clouds: sky clear below 12,000 feet AGL
Weather: no significant weather observed at this time

METAR text: KTUS 182353Z 33009KT 10SM CLR 18/06 A3014 RMK AO2 SLP186 T01780056 10194 20156 53002
Conditions at: KTUS (TUCSON , AZ, US) observed 2353 UTC 18 January 2019
Temperature: 17.8°C (64°F)
Dewpoint: 5.6°C (42°F) [RH = 45%]
Pressure (altimeter): 30.14 inches Hg (1020.7 mb)
[Sea-level pressure: 1018.6 mb]
Winds: from the NNW (330 degrees) at 10 MPH (9 knots; 4.6 m/s)
Visibility: 10 or more miles (16+ km)
Ceiling: at least 12,000 feet AGL
Clouds: sky clear below 12,000 feet AGL
Weather: no significant weather observed at this time

METAR text: KTUS 182253Z 31007KT 10SM CLR 18/05 A3013 RMK AO2 SLP183 T01830050
Conditions at: KTUS (TUCSON , AZ, US) observed 2253 UTC 18 January 2019
Temperature: 18.3°C (65°F)
Dewpoint: 5.0°C (41°F) [RH = 41%]
Pressure (altimeter): 30.13 inches Hg (1020.4 mb)
[Sea-level pressure: 1018.3 mb]
Winds: from the NW (310 degrees) at 8 MPH (7 knots; 3.6 m/s)
Visibility: 10 or more miles (16+ km)
Ceiling: at least 12,000 feet AGL
Clouds: sky clear below 12,000 feet AGL
Weather: no significant weather observed at this time

METAR text: KTUS 182153Z 29009G18KT 10SM CLR 19/04 A3013 RMK AO2 SLP180 T01890044
Conditions at: KTUS (TUCSON , AZ, US) observed 2153 UTC 18 January 2019
Temperature: 18.9°C (66°F)
Dewpoint: 4.4°C (40°F) [RH = 38%]
Pressure (altimeter): 30.13 inches Hg (1020.4 mb)
[Sea-level pressure: 1018.0 mb]
Winds: from the WNW (290 degrees) at 10 MPH (9 knots; 4.6 m/s)
gusting to 21 MPH (18 knots; 9.3 m/s)
Visibility: 10 or more miles (16+ km)
Ceiling: at least 12,000 feet AGL
Clouds: sky clear below 12,000 feet AGL
Weather: no significant weather observed at this time

METAR text: KTUS 182053Z 29009G19KT 10SM CLR 18/06 A3013 RMK AO2 SLP182 T01830061 58018
Conditions at: KTUS (TUCSON , AZ, US) observed 2053 UTC 18 January 2019
Temperature: 18.3°C (65°F)
Dewpoint: 6.1°C (43°F) [RH = 45%]
Pressure (altimeter): 30.13 inches Hg (1020.4 mb)
[Sea-level pressure: 1018.2 mb]
Winds: from the WNW (290 degrees) at 10 MPH (9 knots; 4.6 m/s)
gusting to 22 MPH (19 knots; 9.8 m/s)
Visibility: 10 or more miles (16+ km)
Ceiling: at least 12,000 feet AGL
Clouds: sky clear below 12,000 feet AGL
Weather: no significant weather observed at this time

METAR text: KTUS 181953Z 29009G19KT 10SM CLR 18/07 A3015 RMK AO2 SLP188 T01830067
Conditions at: KTUS (TUCSON , AZ, US) observed 1953 UTC 18 January 2019
Temperature: 18.3°C (65°F)
Dewpoint: 6.7°C (44°F) [RH = 47%]
Pressure (altimeter): 30.15 inches Hg (1021.1 mb)
[Sea-level pressure: 1018.8 mb]
Winds: from the WNW (290 degrees) at 10 MPH (9 knots; 4.6 m/s)
gusting to 22 MPH (19 knots; 9.8 m/s)
Visibility: 10 or more miles (16+ km)
Ceiling: at least 12,000 feet AGL
Clouds: sky clear below 12,000 feet AGL
Weather: no significant weather observed at this time

METAR text: KTUS 181853Z 30004KT 10SM SCT041 17/07 A3019 RMK AO2 SLP204 T01670072
Conditions at: KTUS (TUCSON , AZ, US) observed 1853 UTC 18 January 2019
Temperature: 16.7°C (62°F)
Dewpoint: 7.2°C (45°F) [RH = 53%]
Pressure (altimeter): 30.19 inches Hg (1022.4 mb)
[Sea-level pressure: 1020.4 mb]
Winds: from the WNW (300 degrees) at 5 MPH (4 knots; 2.1 m/s)
Visibility: 10 or more miles (16+ km)
Ceiling: at least 12,000 feet AGL
Clouds: scattered clouds at 4100 feet AGL
Weather: no significant weather observed at this time

METAR text: KTUS 181806Z 28005KT 10SM CLR 16/07 A3019 RMK AO2 T01560067
Conditions at: KTUS (TUCSON , AZ, US) observed 1806 UTC 18 January 2019
Temperature: 15.6°C (60°F)
Dewpoint: 6.7°C (44°F) [RH = 55%]
Pressure (altimeter): 30.19 inches Hg (1022.4 mb)
Winds: from the W (280 degrees) at 6 MPH (5 knots; 2.6 m/s)
Visibility: 10 or more miles (16+ km)
Ceiling: at least 12,000 feet AGL
Clouds: sky clear below 12,000 feet AGL
Weather: no significant weather observed at this time

METAR text: KTUS 181753Z 10SM CLR 16/07 A3019 RMK AO2 SLP203 T01560067 10156 20067 50005
Conditions at: KTUS (TUCSON , AZ, US) observed 1753 UTC 18 January 2019
Temperature: 15.6°C (60°F)
Dewpoint: 6.7°C (44°F) [RH = 55%]
Pressure (altimeter): 30.19 inches Hg (1022.4 mb)
[Sea-level pressure: 1020.3 mb]
Winds: missing
Visibility: 10 or more miles (16+ km)
Ceiling: at least 12,000 feet AGL
Clouds: sky clear below 12,000 feet AGL
Weather: no significant weather observed at this time

METAR text: KTUS 181653Z 00000KT 10SM CLR 13/06 A3020 RMK AO2 SLP208 T01280061
Conditions at: KTUS (TUCSON , AZ, US) observed 1653 UTC 18 January 2019
Temperature: 12.8°C (55°F)
Dewpoint: 6.1°C (43°F) [RH = 64%]
Pressure (altimeter): 30.20 inches Hg (1022.8 mb)
[Sea-level pressure: 1020.8 mb]
Winds: calm
Visibility: 10 or more miles (16+ km)
Ceiling: at least 12,000 feet AGL
Clouds: sky clear below 12,000 feet AGL
Weather: no significant weather observed at this time

METAR text: KTUS 181553Z 19003KT 10SM FEW042 10/06 A3017 RMK AO2 SLP201 T01000056
Conditions at: KTUS (TUCSON , AZ, US) observed 1553 UTC 18 January 2019
Temperature: 10.0°C (50°F)
Dewpoint: 5.6°C (42°F) [RH = 74%]
Pressure (altimeter): 30.17 inches Hg (1021.8 mb)
[Sea-level pressure: 1020.1 mb]
Winds: from the S (190 degrees) at 3 MPH (3 knots; 1.5 m/s)
Visibility: 10 or more miles (16+ km)
Ceiling: at least 12,000 feet AGL
Clouds: few clouds at 4200 feet AGL
Weather: no significant weather observed at this time

METAR text: KTUS 181453Z 20003KT 10SM BKN042 08/05 A3017 RMK AO2 SLP202 T00780050 53015
Conditions at: KTUS (TUCSON , AZ, US) observed 1453 UTC 18 January 2019
Temperature: 7.8°C (46°F)
Dewpoint: 5.0°C (41°F) [RH = 82%]
Pressure (altimeter): 30.17 inches Hg (1021.8 mb)
[Sea-level pressure: 1020.2 mb]
Winds: from the SSW (200 degrees) at 3 MPH (3 knots; 1.5 m/s)
Visibility: 10 or more miles (16+ km)
Ceiling: 4200 feet AGL
Clouds: broken clouds at 4200 feet AGL
Weather: no significant weather observed at this time

METAR text: KTUS 181353Z 16005KT 10SM CLR 07/04 A3015 RMK AO2 SLP193 T00670044
Conditions at: KTUS (TUCSON , AZ, US) observed 1353 UTC 18 January 2019
Temperature: 6.7°C (44°F)
Dewpoint: 4.4°C (40°F) [RH = 85%]
Pressure (altimeter): 30.15 inches Hg (1021.1 mb)
[Sea-level pressure: 1019.3 mb]
Winds: from the SSE (160 degrees) at 6 MPH (5 knots; 2.6 m/s)
Visibility: 10 or more miles (16+ km)
Ceiling: at least 12,000 feet AGL
Clouds: sky clear below 12,000 feet AGL
Weather: no significant weather observed at this time

METAR text: KTUS 181253Z 15007KT 10SM CLR 07/04 A3013 RMK AO2 SLP185 T00720044
Conditions at: KTUS (TUCSON , AZ, US) observed 1253 UTC 18 January 2019
Temperature: 7.2°C (45°F)
Dewpoint: 4.4°C (40°F) [RH = 82%]
Pressure (altimeter): 30.13 inches Hg (1020.4 mb)
[Sea-level pressure: 1018.5 mb]
Winds: from the SSE (150 degrees) at 8 MPH (7 knots; 3.6 m/s)
Visibility: 10 or more miles (16+ km)
Ceiling: at least 12,000 feet AGL
Clouds: sky clear below 12,000 feet AGL
Weather: no significant weather observed at this time

METAR text: KTUS 181153Z 17006KT 10SM CLR 08/05 A3012 RMK AO2 SLP181 T00780050 10111 20078 58016
Conditions at: KTUS (TUCSON , AZ, US) observed 1153 UTC 18 January 2019
Temperature: 7.8°C (46°F)
Dewpoint: 5.0°C (41°F) [RH = 82%]
Pressure (altimeter): 30.12 inches Hg (1020.1 mb)
[Sea-level pressure: 1018.1 mb]
Winds: from the S (170 degrees) at 7 MPH (6 knots; 3.1 m/s)
Visibility: 10 or more miles (16+ km)
Ceiling: at least 12,000 feet AGL
Clouds: sky clear below 12,000 feet AGL
Weather: no significant weather observed at this time

METAR text: KTUS 181053Z 17005KT 10SM CLR 08/05 A3014 RMK AO2 SLP185 T00830050
Conditions at: KTUS (TUCSON , AZ, US) observed 1053 UTC 18 January 2019
Temperature: 8.3°C (47°F)
Dewpoint: 5.0°C (41°F) [RH = 80%]
Pressure (altimeter): 30.14 inches Hg (1020.7 mb)
[Sea-level pressure: 1018.5 mb]
Winds: from the S (170 degrees) at 6 MPH (5 knots; 2.6 m/s)
Visibility: 10 or more miles (16+ km)
Ceiling: at least 12,000 feet AGL
Clouds: sky clear below 12,000 feet AGL
Weather: no significant weather observed at this time

METAR text: KTUS 180953Z 15003KT 10SM CLR 09/06 A3017 RMK AO2 SLP194 T00890056
Conditions at: KTUS (TUCSON , AZ, US) observed 0953 UTC 18 January 2019
Temperature: 8.9°C (48°F)
Dewpoint: 5.6°C (42°F) [RH = 80%]
Pressure (altimeter): 30.17 inches Hg (1021.8 mb)
[Sea-level pressure: 1019.4 mb]
Winds: from the SSE (150 degrees) at 3 MPH (3 knots; 1.5 m/s)
Visibility: 10 or more miles (16+ km)
Ceiling: at least 12,000 feet AGL
Clouds: sky clear below 12,000 feet AGL
Weather: no significant weather observed at this time

METAR text: KTUS 180853Z 14005KT 10SM CLR 09/06 A3017 RMK AO2 SLP196 T00890056 58011
Conditions at: KTUS (TUCSON , AZ, US) observed 0853 UTC 18 January 2019
Temperature: 8.9°C (48°F)
Dewpoint: 5.6°C (42°F) [RH = 80%]
Pressure (altimeter): 30.17 inches Hg (1021.8 mb)
[Sea-level pressure: 1019.6 mb]
Winds: from the SE (140 degrees) at 6 MPH (5 knots; 2.6 m/s)
Visibility: 10 or more miles (16+ km)
Ceiling: at least 12,000 feet AGL
Clouds: sky clear below 12,000 feet AGL
Weather: no significant weather observed at this time

METAR text: KTUS 180753Z 16004KT 10SM CLR 09/06 A3019 RMK AO2 SLP203 T00940061
Conditions at: KTUS (TUCSON , AZ, US) observed 0753 UTC 18 January 2019
Temperature: 9.4°C (49°F)
Dewpoint: 6.1°C (43°F) [RH = 80%]
Pressure (altimeter): 30.19 inches Hg (1022.4 mb)
[Sea-level pressure: 1020.3 mb]
Winds: from the SSE (160 degrees) at 5 MPH (4 knots; 2.1 m/s)
Visibility: 10 or more miles (16+ km)
Ceiling: at least 12,000 feet AGL
Clouds: sky clear below 12,000 feet AGL
Weather: no significant weather observed at this time

METAR text: KTUS 180653Z 15004KT 10SM CLR 10/06 A3021 RMK AO2 SLP211 T01000061 402060056
Conditions at: KTUS (TUCSON , AZ, US) observed 0653 UTC 18 January 2019
Temperature: 10.0°C (50°F)
Dewpoint: 6.1°C (43°F) [RH = 77%]
Pressure (altimeter): 30.21 inches Hg (1023.1 mb)
[Sea-level pressure: 1021.1 mb]
Winds: from the SSE (150 degrees) at 5 MPH (4 knots; 2.1 m/s)
Visibility: 10 or more miles (16+ km)
Ceiling: at least 12,000 feet AGL
Clouds: sky clear below 12,000 feet AGL
Weather: no significant weather observed at this time

METAR text: KTUS 180553Z 14005KT 10SM CLR 11/07 A3021 RMK AO2 SLP211 T01060067 10183 20106 51008
Conditions at: KTUS (TUCSON , AZ, US) observed 0553 UTC 18 January 2019
Temperature: 10.6°C (51°F)
Dewpoint: 6.7°C (44°F) [RH = 77%]
Pressure (altimeter): 30.21 inches Hg (1023.1 mb)
[Sea-level pressure: 1021.1 mb]
Winds: from the SE (140 degrees) at 6 MPH (5 knots; 2.6 m/s)
Visibility: 10 or more miles (16+ km)
Ceiling: at least 12,000 feet AGL
Clouds: sky clear below 12,000 feet AGL
Weather: no significant weather observed at this time

METAR text: KTUS 180453Z 24003KT 10SM CLR 12/07 A3021 RMK AO2 SLP211 T01170067
Conditions at: KTUS (TUCSON , AZ, US) observed 0453 UTC 18 January 2019
Temperature: 11.7°C (53°F)
Dewpoint: 6.7°C (44°F) [RH = 71%]
Pressure (altimeter): 30.21 inches Hg (1023.1 mb)
[Sea-level pressure: 1021.1 mb]
Winds: from the WSW (240 degrees) at 3 MPH (3 knots; 1.5 m/s)
Visibility: 10 or more miles (16+ km)
Ceiling: at least 12,000 feet AGL
Clouds: sky clear below 12,000 feet AGL
Weather: no significant weather observed at this time

METAR text: KTUS 180353Z 20006KT 10SM CLR 12/07 A3020 RMK AO2 SLP210 T01220067
Conditions at: KTUS (TUCSON , AZ, US) observed 0353 UTC 18 January 2019
Temperature: 12.2°C (54°F)
Dewpoint: 6.7°C (44°F) [RH = 69%]
Pressure (altimeter): 30.20 inches Hg (1022.8 mb)
[Sea-level pressure: 1021.0 mb]
Winds: from the SSW (200 degrees) at 7 MPH (6 knots; 3.1 m/s)
Visibility: 10 or more miles (16+ km)
Ceiling: at least 12,000 feet AGL
Clouds: sky clear below 12,000 feet AGL
Weather: no significant weather observed at this time

METAR text: KTUS 180253Z 19003KT 10SM CLR 13/07 A3018 RMK AO2 SLP209 T01280067 51009
Conditions at: KTUS (TUCSON , AZ, US) observed 0253 UTC 18 January 2019
Temperature: 12.8°C (55°F)
Dewpoint: 6.7°C (44°F) [RH = 66%]
Pressure (altimeter): 30.18 inches Hg (1022.1 mb)
[Sea-level pressure: 1020.9 mb]
Winds: from the S (190 degrees) at 3 MPH (3 knots; 1.5 m/s)
Visibility: 10 or more miles (16+ km)
Ceiling: at least 12,000 feet AGL
Clouds: sky clear below 12,000 feet AGL
Weather: no significant weather observed at this time

Forecast for: KTUS (TUCSON , AZ, US)
Text: KTUS 191135Z 1912/2012 13005KT P6SM SKC
Forecast period: 1200 to 1700 UTC 19 January 2019
Forecast type: FROM: standard forecast or significant change
Winds: from the SE (130 degrees) at 6 MPH (5 knots; 2.6 m/s)
Visibility: 6 or more miles 10+ km)
Clouds: clear skies
Weather: no significant weather forecast for this period
Text: FM191700 11014G22KT P6SM SCT250
Forecast period: 1700 to 2100 UTC 19 January 2019
Forecast type: FROM: standard forecast or significant change
Winds: from the ESE (110 degrees) at 16 MPH (14 knots; 7.2 m/s)
gusting to 25 MPH (22 knots; 11.3 m/s)
Visibility: 6 or more miles 10+ km)
Ceiling: at least 12,000 feet AGL
Clouds: scattered clouds at 25000 feet AGL
Weather: no significant weather forecast for this period
Text: FM192100 07008KT P6SM BKN250
Forecast period: 2100 UTC 19 January 2019 to 0300 UTC 20 January 2019
Forecast type: FROM: standard forecast or significant change
Winds: from the ENE (70 degrees) at 9 MPH (8 knots; 4.1 m/s)
Visibility: 6 or more miles 10+ km)
Ceiling: 25000 feet AGL
Clouds: broken clouds at 25000 feet AGL
Weather: no significant weather forecast for this period
Text: FM200300 13010KT P6SM BKN250
Forecast period: 0300 to 1200 UTC 20 January 2019
Forecast type: FROM: standard forecast or significant change
Winds: from the SE (130 degrees) at 12 MPH (10 knots; 5.1 m/s)
Visibility: 6 or more miles 10+ km)
Ceiling: 25000 feet AGL
Clouds: broken clouds at 25000 feet AGL
Weather: no significant weather forecast for this period